createdAt,value
2022-12-01T00:01:21.944Z,5.10
2022-12-01T00:03:49.228Z,5.57
2022-12-01T00:06:21.365Z,5.40
2022-12-01T00:09:09.293Z,4.90
2022-12-01T00:11:37.982Z,5.63
2022-12-01T00:14:05.952Z,5.33
2022-12-01T00:16:34.384Z,5.00
2022-12-01T00:19:01.852Z,5.20
2022-12-01T00:21:29.292Z,4.80
2022-12-01T00:23:57.911Z,4.67
2022-12-01T00:26:26.389Z,4.80
2022-12-01T00:28:56.281Z,4.83
2022-12-01T00:31:23.698Z,5.60
2022-12-01T00:33:51.343Z,4.87
2022-12-01T00:36:18.542Z,4.27
2022-12-01T00:38:46.568Z,4.10
2022-12-01T00:41:13.923Z,5.07
2022-12-01T00:43:41.332Z,4.17
2022-12-01T00:46:08.712Z,4.27
2022-12-01T00:48:35.982Z,4.80
2022-12-01T00:51:03.372Z,4.40
2022-12-01T00:53:31.080Z,4.47
2022-12-01T00:55:58.374Z,4.90
2022-12-01T00:58:26.292Z,3.73
2022-12-01T01:01:01.362Z,4.80
2022-12-01T01:03:29.703Z,4.10
2022-12-01T01:05:56.974Z,4.63
2022-12-01T01:08:24.133Z,5.10
2022-12-01T01:10:51.493Z,5.27
2022-12-01T01:13:18.794Z,5.27
2022-12-01T01:15:46.265Z,5.07
2022-12-01T01:18:13.655Z,5.30
2022-12-01T01:20:40.896Z,4.67
2022-12-01T01:23:08.285Z,4.80
2022-12-01T01:25:35.594Z,5.23
2022-12-01T01:28:02.775Z,5.43
2022-12-01T01:30:30.182Z,5.30
2022-12-01T01:32:57.402Z,4.40
2022-12-01T01:35:24.590Z,4.90
2022-12-01T01:37:52.018Z,5.43
2022-12-01T01:40:19.249Z,5.07
2022-12-01T01:42:46.481Z,4.80
2022-12-01T01:45:25.868Z,4.67
2022-12-01T01:47:55.249Z,4.63
2022-12-01T01:50:26.469Z,4.40
2022-12-01T01:53:01.383Z,4.60
2022-12-01T01:55:30.322Z,4.67
2022-12-01T01:57:57.557Z,4.40
2022-12-01T02:00:24.820Z,4.60
2022-12-01T02:02:53.577Z,4.07
2022-12-01T02:05:28.046Z,4.60
2022-12-01T02:07:58.661Z,4.80
2022-12-01T02:10:51.712Z,3.80
2022-12-01T02:13:41.682Z,4.20
2022-12-01T02:16:23.237Z,4.23
2022-12-01T02:19:03.540Z,4.20
2022-12-01T02:21:49.269Z,4.07
2022-12-01T02:24:38.447Z,4.30
2022-12-01T02:27:21.209Z,4.63
2022-12-01T02:30:03.946Z,4.50
2022-12-01T02:32:54.442Z,4.57
2022-12-01T02:35:34.526Z,5.30
2022-12-01T02:38:07.728Z,5.20
2022-12-01T02:40:42.966Z,4.20
2022-12-01T02:43:46.615Z,4.67
2022-12-01T02:46:29.697Z,4.53
2022-12-01T02:49:02.173Z,4.77
2022-12-01T02:51:32.324Z,4.60
2022-12-01T02:54:01.580Z,4.77
2022-12-01T02:56:29.554Z,4.80
2022-12-01T02:58:56.985Z,4.70
2022-12-01T03:01:44.183Z,4.77
2022-12-01T03:04:35.631Z,6.40
2022-12-01T03:07:49.487Z,4.93
2022-12-01T03:10:48.731Z,5.20
2022-12-01T03:13:42.720Z,5.03
2022-12-01T03:16:35.785Z,5.00
2022-12-01T03:19:14.848Z,5.10
2022-12-01T03:21:52.218Z,4.83
2022-12-01T03:24:24.015Z,5.83
2022-12-01T03:26:57.290Z,5.73
2022-12-01T03:29:45.106Z,6.03
2022-12-01T03:32:13.040Z,5.00
2022-12-01T03:35:05.018Z,6.00
2022-12-01T03:37:49.101Z,5.10
2022-12-01T03:40:21.801Z,5.43
2022-12-01T03:42:59.320Z,5.37
2022-12-01T03:45:44.103Z,6.10
2022-12-01T03:48:11.500Z,5.23
2022-12-01T03:51:25.810Z,5.37
2022-12-01T03:54:04.402Z,5.37
2022-12-01T03:56:39.619Z,5.73
2022-12-01T03:59:10.169Z,6.07
2022-12-01T04:01:37.638Z,6.83
2022-12-01T04:04:15.082Z,5.90
2022-12-01T04:06:46.329Z,6.20
2022-12-01T04:09:13.733Z,6.87
2022-12-01T04:12:01.799Z,5.87
2022-12-01T04:14:30.191Z,5.10
2022-12-01T04:16:57.911Z,5.63
2022-12-01T04:19:25.285Z,5.97
2022-12-01T04:21:52.424Z,5.90
2022-12-01T04:24:19.836Z,5.47
2022-12-01T04:26:47.099Z,5.00
2022-12-01T04:29:14.563Z,6.00
2022-12-01T04:31:41.899Z,5.57
2022-12-01T04:34:11.183Z,6.30
2022-12-01T04:36:38.387Z,5.97
2022-12-01T04:39:05.778Z,6.43
2022-12-01T04:41:33.829Z,6.87
2022-12-01T04:44:01.096Z,6.00
2022-12-01T04:46:28.449Z,5.73
2022-12-01T04:48:55.681Z,5.83
2022-12-01T04:51:23.590Z,5.30
2022-12-01T04:53:54.090Z,4.87
2022-12-01T04:56:21.339Z,7.00
2022-12-01T04:58:48.626Z,5.27
2022-12-01T05:01:17.850Z,6.40
2022-12-01T05:03:49.554Z,5.30
2022-12-01T05:06:19.988Z,5.63
2022-12-01T05:08:47.628Z,6.27
2022-12-01T05:11:16.021Z,5.83
2022-12-01T05:13:45.633Z,5.87
2022-12-01T05:16:21.974Z,7.37
2022-12-01T05:19:16.311Z,6.77
2022-12-01T05:21:44.961Z,6.47
2022-12-01T05:24:13.780Z,6.40
2022-12-01T05:26:42.583Z,6.07
2022-12-01T05:29:10.762Z,6.27
2022-12-01T05:31:39.802Z,5.50
2022-12-01T05:34:08.195Z,6.07
2022-12-01T05:36:35.866Z,6.03
2022-12-01T05:39:03.676Z,6.53
2022-12-01T05:41:30.900Z,6.40
2022-12-01T05:43:58.368Z,5.93
2022-12-01T05:46:26.016Z,6.27
2022-12-01T05:48:53.275Z,6.30
2022-12-01T05:51:20.695Z,6.30
2022-12-01T05:53:47.929Z,6.77
2022-12-01T05:56:15.121Z,5.90
2022-12-01T05:58:42.397Z,6.30
2022-12-01T06:01:09.676Z,6.17
2022-12-01T06:03:37.051Z,5.60
2022-12-01T06:06:04.701Z,5.90
2022-12-01T06:08:31.997Z,4.97
2022-12-01T06:10:59.191Z,4.93
2022-12-01T06:13:26.572Z,5.93
2022-12-01T06:16:04.864Z,5.50
2022-12-01T06:18:36.389Z,5.23
2022-12-01T06:21:05.761Z,6.90
2022-12-01T06:23:33.976Z,6.23
2022-12-01T06:26:01.211Z,6.00
2022-12-01T06:28:28.477Z,5.77
2022-12-01T06:31:01.264Z,5.63
2022-12-01T06:33:31.726Z,5.30
2022-12-01T06:36:04.643Z,5.27
2022-12-01T06:38:34.218Z,5.90
2022-12-01T06:41:02.122Z,5.97
2022-12-01T06:43:29.926Z,5.13
2022-12-01T06:46:01.716Z,4.83
2022-12-01T06:48:30.711Z,5.03
2022-12-01T06:51:01.885Z,4.53
2022-12-01T06:53:29.686Z,5.60
2022-12-01T06:56:04.995Z,5.30
2022-12-01T06:58:33.046Z,5.83
2022-12-01T07:01:01.174Z,5.20
2022-12-01T07:03:28.459Z,5.07
2022-12-01T07:06:00.640Z,4.60
2022-12-01T07:08:28.841Z,5.00
2022-12-01T07:11:12.582Z,5.30
2022-12-01T07:13:41.207Z,4.33
2022-12-01T07:16:09.776Z,4.10
2022-12-01T07:18:38.687Z,3.97
2022-12-01T07:21:08.652Z,3.87
2022-12-01T07:23:36.217Z,4.07
2022-12-01T07:26:13.057Z,3.80
2022-12-01T07:28:40.306Z,3.73
2022-12-01T07:31:07.580Z,3.90
2022-12-01T07:33:35.254Z,3.70
2022-12-01T07:36:03.221Z,3.90
2022-12-01T07:38:32.411Z,4.10
2022-12-01T07:41:04.467Z,4.33
2022-12-01T07:43:33.140Z,3.60
2022-12-01T07:46:24.694Z,3.30
2022-12-01T07:48:53.549Z,3.67
2022-12-01T07:51:21.951Z,3.70
2022-12-01T07:53:51.100Z,4.00
2022-12-01T07:56:19.655Z,3.70
2022-12-01T07:58:47.565Z,3.30
2022-12-01T08:01:18.262Z,3.50
2022-12-01T08:03:45.674Z,3.60
2022-12-01T08:06:13.007Z,3.27
2022-12-01T08:08:42.039Z,3.77
2022-12-01T08:11:17.722Z,3.50
2022-12-01T08:13:45.366Z,3.40
2022-12-01T08:16:15.584Z,3.30
2022-12-01T08:18:43.854Z,3.10
2022-12-01T08:21:14.483Z,3.47
2022-12-01T08:23:42.506Z,3.60
2022-12-01T08:26:14.083Z,3.57
2022-12-01T08:28:42.178Z,3.57
2022-12-01T08:31:12.532Z,4.37
2022-12-01T08:33:39.783Z,3.60
2022-12-01T08:36:07.591Z,3.37
2022-12-01T08:38:35.248Z,3.10
2022-12-01T08:41:07.545Z,3.63
2022-12-01T08:46:36.765Z,3.33
2022-12-01T08:49:06.007Z,3.10
2022-12-01T08:51:33.873Z,3.53
2022-12-01T08:54:01.740Z,3.57
2022-12-01T08:56:40.864Z,3.67
2022-12-01T08:59:08.846Z,3.37
2022-12-01T09:01:52.082Z,3.37
2022-12-01T09:04:21.486Z,3.27
2022-12-01T09:06:51.000Z,3.43
2022-12-01T09:09:23.908Z,3.50
2022-12-01T09:11:52.792Z,3.13
2022-12-01T09:14:21.197Z,2.90
2022-12-01T09:16:50.134Z,2.57
2022-12-01T09:19:24.067Z,2.90
2022-12-01T09:21:52.928Z,3.37
2022-12-01T09:24:20.230Z,2.97
2022-12-01T09:26:47.383Z,3.17
2022-12-01T09:29:16.789Z,3.50
2022-12-01T09:31:44.340Z,3.00
2022-12-01T09:34:15.735Z,3.80
2022-12-01T09:36:43.248Z,4.03
2022-12-01T09:39:14.423Z,2.90
2022-12-01T09:42:08.385Z,3.23
2022-12-01T09:44:52.808Z,2.67
2022-12-01T09:47:29.155Z,3.27
2022-12-01T09:50:16.699Z,3.20
2022-12-01T09:52:47.537Z,3.30
2022-12-01T09:55:17.267Z,3.13
2022-12-01T09:57:48.525Z,2.80
2022-12-01T10:00:25.698Z,2.93
2022-12-01T10:03:17.118Z,3.07
2022-12-01T10:06:26.721Z,3.20
2022-12-01T10:08:52.536Z,3.10
2022-12-01T10:11:28.421Z,3.43
2022-12-01T10:13:55.889Z,3.60
2022-12-01T10:16:32.900Z,2.83
2022-12-01T10:19:33.163Z,3.23
2022-12-01T10:22:26.970Z,3.63
2022-12-01T10:25:04.301Z,3.73
2022-12-01T10:28:36.657Z,3.67
2022-12-01T10:31:35.538Z,3.90
2022-12-01T10:34:16.302Z,4.73
2022-12-01T10:36:43.651Z,4.60
2022-12-01T10:39:19.105Z,4.53
2022-12-01T10:41:47.748Z,4.00
2022-12-01T10:44:16.127Z,4.17
2022-12-01T10:47:03.304Z,4.40
2022-12-01T10:49:41.334Z,4.03
2022-12-01T10:52:33.268Z,3.90
2022-12-01T10:55:01.751Z,4.20
2022-12-01T10:57:31.334Z,3.90
2022-12-01T11:00:04.956Z,4.30
2022-12-01T11:02:32.949Z,3.90
2022-12-01T11:05:07.011Z,3.87
2022-12-01T11:07:42.491Z,4.00
2022-12-01T11:10:21.422Z,4.20
2022-12-01T11:13:30.870Z,4.07
2022-12-01T11:16:00.451Z,4.27
2022-12-01T11:18:35.015Z,3.93
2022-12-01T11:21:12.957Z,4.23
2022-12-01T11:23:48.686Z,4.40
2022-12-01T11:26:17.931Z,4.50
2022-12-01T11:28:57.149Z,4.10
2022-12-01T11:31:36.156Z,4.00
2022-12-01T11:34:04.037Z,4.67
2022-12-01T11:36:46.511Z,4.43
2022-12-01T11:39:40.765Z,4.93
2022-12-01T11:42:18.185Z,4.90
2022-12-01T11:45:11.444Z,4.47
2022-12-01T11:48:00.620Z,4.70
2022-12-01T11:50:31.554Z,4.60
2022-12-01T11:52:59.413Z,3.63
2022-12-01T11:55:29.774Z,4.00
2022-12-01T11:58:04.143Z,4.03
2022-12-01T12:00:45.616Z,4.20
2022-12-01T12:03:22.373Z,4.27
2022-12-01T12:09:45.234Z,4.47
2022-12-01T12:12:45.756Z,4.20
2022-12-01T12:15:15.725Z,4.43
2022-12-01T12:18:01.049Z,4.60
2022-12-01T12:20:44.705Z,4.63
2022-12-01T12:23:18.936Z,4.47
2022-12-01T12:26:10.496Z,4.37
2022-12-01T12:29:02.777Z,4.33
2022-12-01T12:32:02.845Z,4.00
2022-12-01T12:34:55.447Z,3.90
2022-12-01T12:37:47.508Z,3.70
2022-12-01T12:40:29.314Z,3.93
2022-12-01T12:43:12.949Z,4.00
2022-12-01T12:46:00.087Z,4.40
2022-12-01T12:48:41.674Z,4.17
2022-12-01T12:51:42.327Z,4.20
2022-12-01T12:54:33.096Z,3.63
2022-12-01T12:57:07.115Z,3.67
2022-12-01T12:59:58.461Z,3.90
2022-12-01T13:02:33.688Z,4.30
2022-12-01T13:05:16.947Z,4.50
2022-12-01T13:07:59.772Z,4.03
2022-12-01T13:10:27.078Z,3.70
2022-12-01T13:13:04.598Z,3.90
2022-12-01T13:15:34.427Z,4.00
2022-12-01T13:18:22.690Z,4.07
2022-12-01T13:20:51.236Z,4.20
2022-12-01T13:23:21.261Z,4.17
2022-12-01T13:25:53.200Z,4.47
2022-12-01T13:28:34.407Z,4.73
2022-12-01T13:31:11.146Z,4.53
2022-12-01T13:33:41.693Z,4.57
2022-12-01T13:36:45.328Z,4.93
2022-12-01T13:39:05.584Z,4.50
2022-12-01T13:41:35.251Z,4.20
2022-12-01T13:44:02.439Z,5.30
2022-12-01T13:46:44.705Z,4.23
2022-12-01T13:49:44.809Z,3.90
2022-12-01T13:52:48.515Z,3.90
2022-12-01T13:55:15.610Z,4.60
2022-12-01T13:57:50.225Z,4.60
2022-12-01T14:00:27.254Z,4.40
2022-12-01T14:03:37.438Z,4.73
2022-12-01T14:06:46.584Z,3.87
2022-12-01T14:09:53.491Z,4.17
2022-12-01T14:12:25.304Z,4.10
2022-12-01T14:15:00.941Z,5.30
2022-12-01T14:17:38.473Z,4.97
2022-12-01T14:20:14.965Z,4.47
2022-12-01T14:22:45.867Z,4.23
2022-12-01T14:25:22.096Z,4.00
2022-12-01T14:27:53.190Z,3.97
2022-12-01T14:30:47.727Z,3.83
2022-12-01T14:33:39.705Z,3.57
2022-12-01T14:36:14.032Z,4.00
2022-12-01T14:38:42.281Z,3.90
2022-12-01T14:41:18.216Z,3.60
2022-12-01T14:44:03.762Z,3.13
2022-12-01T14:46:43.184Z,3.63
2022-12-01T14:49:17.947Z,3.67
2022-12-01T14:51:50.071Z,3.73
2022-12-01T14:54:45.077Z,4.13
2022-12-01T14:57:17.237Z,3.90
2022-12-01T14:59:45.253Z,3.90
2022-12-01T15:02:14.052Z,3.63
2022-12-01T15:05:07.721Z,4.17
2022-12-01T15:07:44.060Z,3.60
2022-12-01T15:10:20.598Z,8.73
2022-12-01T15:12:49.563Z,4.20
2022-12-01T15:15:22.262Z,3.60
2022-12-01T15:17:52.624Z,3.53
2022-12-01T15:20:46.388Z,3.73
2022-12-01T15:23:17.245Z,4.40
2022-12-01T15:25:46.470Z,3.87
2022-12-01T15:28:22.967Z,3.87
2022-12-01T15:30:55.196Z,12.03
2022-12-01T15:33:36.985Z,3.80
2022-12-01T15:36:07.397Z,7.87
2022-12-01T15:38:39.057Z,9.17
2022-12-01T15:41:28.432Z,5.07
2022-12-01T15:44:00.706Z,4.87
2022-12-01T15:46:34.409Z,4.43
2022-12-01T15:49:16.924Z,3.90
2022-12-01T15:51:44.728Z,4.17
2022-12-01T15:54:22.665Z,4.10
2022-12-01T15:56:56.168Z,4.50
2022-12-01T15:59:39.953Z,4.07
2022-12-01T16:02:30.574Z,3.90
2022-12-01T16:05:19.255Z,4.13
2022-12-01T16:08:12.514Z,4.47
2022-12-01T16:10:37.122Z,4.67
2022-12-01T16:13:42.195Z,4.37
2022-12-01T16:16:21.774Z,4.17
2022-12-01T16:19:26.598Z,4.60
2022-12-01T16:22:11.596Z,4.83
2022-12-01T16:24:50.467Z,4.70
2022-12-01T16:27:32.144Z,4.20
2022-12-01T16:30:18.892Z,4.17
2022-12-01T16:32:46.158Z,4.23
2022-12-01T16:35:24.204Z,4.57
2022-12-01T16:37:51.660Z,4.40
2022-12-01T16:40:19.400Z,4.33
2022-12-01T16:42:48.628Z,4.20
2022-12-01T16:45:17.689Z,4.40
2022-12-01T16:47:47.233Z,5.20
2022-12-01T16:50:19.737Z,4.70
2022-12-01T16:52:47.310Z,4.90
2022-12-01T16:55:27.209Z,4.27
2022-12-01T16:57:55.623Z,4.73
2022-12-01T17:00:24.240Z,5.47
2022-12-01T17:02:53.044Z,4.77
2022-12-01T17:05:20.406Z,4.63
2022-12-01T17:07:48.184Z,4.77
2022-12-01T17:10:16.085Z,4.37
2022-12-01T17:12:43.406Z,4.53
2022-12-01T17:15:11.061Z,4.70
2022-12-01T17:17:38.478Z,4.37
2022-12-01T17:20:07.083Z,4.90
2022-12-01T17:22:34.859Z,4.90
2022-12-01T17:25:02.756Z,5.10
2022-12-01T17:27:31.560Z,4.90
2022-12-01T17:29:59.056Z,5.40
2022-12-01T17:32:27.305Z,5.53
2022-12-01T17:34:54.841Z,5.00
2022-12-01T17:37:22.287Z,5.40
2022-12-01T17:39:50.516Z,4.80
2022-12-01T17:42:17.840Z,5.17
2022-12-01T17:44:45.348Z,4.40
2022-12-01T17:47:13.275Z,5.40
2022-12-01T17:49:40.549Z,5.50
2022-12-01T17:52:08.395Z,5.50
2022-12-01T17:54:35.620Z,5.30
2022-12-01T17:57:02.793Z,5.07
2022-12-01T17:59:30.161Z,4.90
2022-12-01T18:01:57.330Z,5.00
2022-12-01T18:04:24.797Z,4.80
2022-12-01T18:06:54.571Z,4.90
2022-12-01T18:09:22.359Z,4.37
2022-12-01T18:11:49.929Z,4.77
2022-12-01T18:14:17.979Z,5.43
2022-12-01T18:16:45.961Z,4.87
2022-12-01T18:19:13.756Z,4.80
2022-12-01T18:21:41.221Z,4.60
2022-12-01T18:24:09.518Z,4.53
2022-12-01T18:26:40.364Z,4.40
2022-12-01T18:29:12.854Z,4.83
2022-12-01T18:31:40.191Z,4.60
2022-12-01T18:34:08.109Z,4.80
2022-12-01T18:36:38.135Z,4.70
2022-12-01T18:39:07.832Z,4.70
2022-12-01T18:41:36.364Z,5.07
2022-12-01T18:44:03.984Z,5.10
2022-12-01T18:46:31.501Z,5.30
2022-12-01T18:49:02.247Z,5.80
2022-12-01T18:51:31.473Z,5.10
2022-12-01T18:54:00.380Z,5.00
2022-12-01T18:56:28.354Z,5.17
2022-12-01T18:59:02.291Z,5.17
2022-12-01T19:01:32.533Z,5.00
2022-12-01T19:04:00.510Z,4.83
2022-12-01T19:06:29.675Z,6.27
2022-12-01T19:08:59.993Z,4.93
2022-12-01T19:11:27.949Z,5.13
2022-12-01T19:13:58.402Z,4.57
2022-12-01T19:16:26.073Z,4.90
2022-12-01T19:18:53.387Z,4.73
2022-12-01T19:21:20.971Z,4.90
2022-12-01T19:23:49.865Z,4.47
2022-12-01T19:26:19.106Z,4.87
2022-12-01T19:28:47.633Z,4.67
2022-12-01T19:31:22.976Z,5.60
2022-12-01T19:33:50.530Z,4.97
2022-12-01T19:36:23.945Z,4.73
2022-12-01T19:38:55.575Z,4.93
2022-12-01T19:41:26.676Z,4.40
2022-12-01T19:44:01.944Z,4.50
2022-12-01T19:46:29.740Z,5.07
2022-12-01T19:49:10.075Z,4.77
2022-12-01T19:51:40.549Z,4.90
2022-12-01T19:54:13.042Z,5.00
2022-12-01T19:56:40.479Z,4.63
2022-12-01T19:59:11.647Z,4.90
2022-12-01T20:01:39.785Z,5.13
2022-12-01T20:04:07.901Z,5.07
2022-12-01T20:06:37.679Z,4.50
2022-12-01T20:09:07.691Z,4.60
2022-12-01T20:11:36.941Z,4.53
2022-12-01T20:14:09.003Z,4.90
2022-12-01T20:16:36.514Z,4.90
2022-12-01T20:19:07.546Z,4.73
2022-12-01T20:21:39.335Z,5.10
2022-12-01T20:24:08.845Z,4.93
2022-12-01T20:26:43.084Z,4.90
2022-12-01T20:29:18.148Z,5.27
2022-12-01T20:31:46.631Z,4.80
2022-12-01T20:34:17.556Z,5.03
2022-12-01T20:36:45.337Z,5.73
2022-12-01T20:39:13.520Z,5.30
2022-12-01T20:41:41.690Z,5.40
2022-12-01T20:44:09.726Z,5.40
2022-12-01T20:46:38.594Z,5.37
2022-12-01T20:49:06.098Z,5.47
2022-12-01T20:51:34.301Z,5.87
2022-12-01T20:54:27.388Z,5.07
2022-12-01T20:56:52.567Z,5.60
2022-12-01T20:59:19.791Z,5.37
2022-12-01T21:01:46.969Z,5.23
2022-12-01T21:04:14.202Z,5.63
2022-12-01T21:06:41.434Z,5.83
2022-12-01T21:09:08.983Z,5.23
2022-12-01T21:12:08.943Z,5.40
2022-12-01T21:14:51.613Z,5.33
2022-12-01T21:17:51.236Z,5.53
2022-12-01T21:20:32.735Z,5.67
2022-12-01T21:23:14.552Z,5.47
2022-12-01T21:25:43.034Z,5.87
2022-12-01T21:28:20.665Z,6.03
2022-12-01T21:30:48.921Z,6.13
2022-12-01T21:33:37.177Z,7.60
2022-12-01T21:36:12.853Z,6.47
2022-12-01T21:38:41.557Z,6.83
2022-12-01T21:41:24.747Z,6.77
2022-12-01T21:43:54.097Z,6.27
2022-12-01T21:46:21.615Z,6.47
2022-12-01T21:48:49.817Z,6.73
2022-12-01T21:51:23.522Z,6.67
2022-12-01T21:53:52.173Z,7.60
2022-12-01T21:56:29.327Z,6.83
2022-12-01T21:59:02.599Z,6.57
2022-12-01T22:01:32.026Z,7.07
2022-12-01T22:04:02.656Z,6.57
2022-12-01T22:06:38.522Z,6.77
2022-12-01T22:09:25.585Z,6.97
2022-12-01T22:12:01.709Z,7.47
2022-12-01T22:14:33.607Z,8.20
2022-12-01T22:17:09.647Z,7.27
2022-12-01T22:19:44.983Z,8.60
2022-12-01T22:22:18.904Z,8.70
2022-12-01T22:24:52.857Z,8.50
2022-12-01T22:27:29.496Z,8.67
2022-12-01T22:30:02.181Z,8.77
2022-12-01T22:32:53.344Z,8.23
2022-12-01T22:35:31.056Z,7.63
2022-12-01T22:38:19.076Z,8.40
2022-12-01T22:40:55.351Z,9.00
2022-12-01T22:43:28.603Z,8.67
2022-12-01T22:46:25.650Z,8.40
2022-12-01T22:48:54.461Z,9.17
2022-12-01T22:51:25.611Z,8.30
2022-12-01T22:54:19.753Z,8.97
2022-12-01T22:56:54.229Z,7.63
2022-12-01T22:59:23.905Z,7.47
2022-12-01T23:01:57.625Z,8.60
2022-12-01T23:04:29.472Z,7.57
2022-12-01T23:07:09.055Z,8.53
2022-12-01T23:09:42.256Z,7.75
2022-12-01T23:12:12.502Z,9.00
2022-12-01T23:14:48.569Z,7.40
2022-12-01T23:17:21.319Z,7.10
2022-12-01T23:19:58.833Z,7.13
2022-12-01T23:22:26.043Z,7.90
2022-12-01T23:24:53.839Z,7.20
2022-12-01T23:27:22.654Z,7.30
2022-12-01T23:29:49.947Z,6.70
2022-12-01T23:32:18.013Z,7.20
2022-12-01T23:34:45.332Z,7.30
2022-12-01T23:37:29.292Z,7.43
2022-12-01T23:39:56.831Z,7.10
2022-12-01T23:42:24.112Z,6.77
2022-12-01T23:44:51.734Z,6.70
2022-12-01T23:47:22.604Z,7.43
2022-12-01T23:49:58.254Z,8.23
2022-12-01T23:52:34.873Z,7.90
2022-12-01T23:55:07.928Z,7.73
2022-12-01T23:57:37.341Z,7.57
